createdAt,value
2023-02-19T00:00:10.755Z,7.70
2023-02-19T00:02:41.862Z,5.60
2023-02-19T00:05:10.306Z,3.60
2023-02-19T00:07:38.783Z,3.50
2023-02-19T00:10:13.609Z,2.80
2023-02-19T00:12:42.693Z,3.20
2023-02-19T00:15:14.750Z,3.10
2023-02-19T00:17:42.936Z,2.70
2023-02-19T00:22:45.147Z,3.20
2023-02-19T00:25:14.638Z,2.00
2023-02-19T00:27:43.480Z,1.90
2023-02-19T00:30:12.064Z,1.60
2023-02-19T00:32:40.390Z,1.50
2023-02-19T00:35:13.827Z,1.70
2023-02-19T00:37:42.289Z,1.10
2023-02-19T00:40:10.737Z,1.40
2023-02-19T00:42:38.884Z,2.30
2023-02-19T00:45:07.788Z,2.10
2023-02-19T00:47:36.102Z,2.90
2023-02-19T00:50:04.617Z,1.80
2023-02-19T00:52:32.835Z,1.90
2023-02-19T00:55:01.504Z,2.40
2023-02-19T00:57:30.093Z,1.50
2023-02-19T01:00:00.248Z,1.70
2023-02-19T01:02:28.387Z,1.20
2023-02-19T01:04:57.890Z,0.40
2023-02-19T01:07:25.981Z,2.10
2023-02-19T01:09:54.017Z,1.10
2023-02-19T01:12:24.429Z,1.40
2023-02-19T01:14:52.561Z,1.40
2023-02-19T01:17:24.076Z,1.40
2023-02-19T01:19:56.425Z,0.90
2023-02-19T01:22:24.722Z,3.20
2023-02-19T01:24:52.943Z,1.40
2023-02-19T01:27:21.572Z,6.00
2023-02-19T01:29:53.461Z,0.90
2023-02-19T01:32:21.813Z,1.20
2023-02-19T01:34:52.319Z,1.20
2023-02-19T01:37:20.659Z,2.00
2023-02-19T01:39:49.534Z,2.50
2023-02-19T01:42:21.726Z,0.80
2023-02-19T01:44:51.559Z,2.10
2023-02-19T01:47:19.645Z,1.00
2023-02-19T01:49:57.490Z,0.80
2023-02-19T01:52:34.347Z,1.20
2023-02-19T01:55:07.271Z,1.80
2023-02-19T01:57:37.748Z,2.20
2023-02-19T02:00:08.628Z,2.90
2023-02-19T02:02:45.682Z,0.70
2023-02-19T02:05:25.322Z,0.80
2023-02-19T02:08:16.117Z,1.10
2023-02-19T02:10:44.462Z,1.30
2023-02-19T02:13:13.427Z,1.80
2023-02-19T02:16:12.702Z,1.80
2023-02-19T02:19:00.300Z,1.40
2023-02-19T02:21:53.898Z,1.90
2023-02-19T02:24:48.964Z,2.30
2023-02-19T02:27:39.518Z,1.20
2023-02-19T02:30:24.119Z,2.30
2023-02-19T02:32:55.261Z,0.90
2023-02-19T02:35:27.783Z,1.10
2023-02-19T02:37:58.257Z,1.50
2023-02-19T02:40:29.452Z,1.50
2023-02-19T02:42:58.855Z,1.80
2023-02-19T02:45:36.248Z,1.60
2023-02-19T02:48:29.963Z,1.90
2023-02-19T02:51:26.046Z,1.30
2023-02-19T02:54:42.026Z,0.80
2023-02-19T02:57:15.011Z,1.60
2023-02-19T02:59:55.853Z,2.20
2023-02-19T03:02:28.642Z,1.40
2023-02-19T03:05:20.909Z,4.10
2023-02-19T03:08:11.682Z,2.30
2023-02-19T03:10:46.004Z,2.50
2023-02-19T03:13:40.395Z,5.50
2023-02-19T03:16:31.852Z,3.40
2023-02-19T03:19:18.703Z,3.70
2023-02-19T03:21:51.403Z,5.70
2023-02-19T03:24:42.928Z,4.10
2023-02-19T03:27:11.162Z,6.10
2023-02-19T03:29:45.847Z,5.70
2023-02-19T03:32:20.003Z,4.90
2023-02-19T03:34:53.218Z,4.90
2023-02-19T03:37:41.870Z,4.60
2023-02-19T03:40:10.664Z,3.80
2023-02-19T03:48:59.104Z,6.00
2023-02-19T03:51:32.500Z,7.40
2023-02-19T03:54:22.308Z,5.20
2023-02-19T03:56:53.203Z,6.80
2023-02-19T03:59:42.506Z,7.00
2023-02-19T04:02:16.010Z,4.70
2023-02-19T04:04:48.660Z,4.40
2023-02-19T04:07:19.882Z,7.50
2023-02-19T04:09:51.836Z,5.10
2023-02-19T04:12:27.359Z,4.60
2023-02-19T04:15:01.711Z,5.10
2023-02-19T04:17:37.381Z,4.80
2023-02-19T04:20:08.326Z,3.90
2023-02-19T04:22:40.560Z,4.90
2023-02-19T04:25:13.718Z,4.60
2023-02-19T04:27:42.351Z,5.20
2023-02-19T04:30:12.051Z,6.00
2023-02-19T04:32:45.403Z,5.80
2023-02-19T04:35:13.576Z,5.20
2023-02-19T04:37:43.554Z,6.60
2023-02-19T04:40:11.725Z,6.50
2023-02-19T04:42:39.794Z,7.40
2023-02-19T04:45:08.328Z,5.50
2023-02-19T04:47:38.071Z,6.00
2023-02-19T04:50:06.341Z,5.90
2023-02-19T04:52:35.630Z,6.00
2023-02-19T04:55:04.460Z,5.80
2023-02-19T04:57:33.200Z,5.60
2023-02-19T05:00:01.848Z,4.50
2023-02-19T05:02:34.158Z,3.80
2023-02-19T05:05:05.249Z,4.30
2023-02-19T05:07:33.800Z,5.90
2023-02-19T05:10:02.141Z,4.90
2023-02-19T05:12:31.294Z,4.90
2023-02-19T05:14:59.666Z,5.20
2023-02-19T05:17:28.003Z,5.60
2023-02-19T05:20:00.851Z,4.70
2023-02-19T05:22:30.021Z,6.20
2023-02-19T05:25:02.458Z,6.60
2023-02-19T05:27:31.433Z,5.60
2023-02-19T05:29:59.569Z,7.40
2023-02-19T05:32:27.928Z,5.80
2023-02-19T05:34:58.168Z,6.80
2023-02-19T05:37:26.567Z,6.70
2023-02-19T05:39:54.694Z,10.70
2023-02-19T05:42:22.931Z,8.20
2023-02-19T05:44:53.462Z,9.80
2023-02-19T05:47:22.414Z,9.10
2023-02-19T05:49:51.032Z,9.00
2023-02-19T05:52:21.464Z,8.20
2023-02-19T05:54:49.824Z,7.80
2023-02-19T05:57:20.587Z,8.10
2023-02-19T05:59:48.649Z,8.00
2023-02-19T06:02:16.715Z,7.10
2023-02-19T06:04:44.822Z,7.80
2023-02-19T06:07:19.356Z,7.20
2023-02-19T06:09:51.379Z,7.90
2023-02-19T06:12:19.379Z,6.90
2023-02-19T06:14:48.011Z,7.00
2023-02-19T06:17:16.748Z,5.80
2023-02-19T06:19:46.601Z,8.00
2023-02-19T06:22:18.086Z,7.00
2023-02-19T06:24:47.593Z,6.80
2023-02-19T06:27:16.268Z,9.30
2023-02-19T06:32:17.525Z,9.60
2023-02-19T06:34:45.904Z,7.00
2023-02-19T06:37:14.445Z,6.60
2023-02-19T06:39:44.214Z,7.20
2023-02-19T06:42:12.526Z,11.70
2023-02-19T06:44:40.910Z,10.00
2023-02-19T06:47:10.104Z,9.40
2023-02-19T06:49:40.155Z,8.00
2023-02-19T06:52:10.458Z,8.20
2023-02-19T06:54:39.585Z,8.40
2023-02-19T06:57:07.733Z,7.10
2023-02-19T06:59:37.466Z,8.10
2023-02-19T07:02:07.153Z,6.60
2023-02-19T07:04:37.553Z,5.50
2023-02-19T07:07:05.690Z,6.40
2023-02-19T07:09:34.527Z,6.40
2023-02-19T07:12:03.591Z,7.60
2023-02-19T07:14:32.420Z,5.90
2023-02-19T07:17:00.816Z,5.90
2023-02-19T07:19:29.230Z,6.90
2023-02-19T07:21:59.318Z,8.30
2023-02-19T07:24:28.237Z,6.90
2023-02-19T07:26:59.342Z,5.70
2023-02-19T07:29:30.495Z,6.40
2023-02-19T07:32:01.230Z,7.10
2023-02-19T07:34:29.607Z,6.70
2023-02-19T07:36:58.160Z,7.30
2023-02-19T07:39:27.324Z,7.60
2023-02-19T07:42:00.796Z,7.20
2023-02-19T07:44:33.665Z,6.10
2023-02-19T07:47:02.209Z,5.90
2023-02-19T07:49:30.650Z,5.80
2023-02-19T07:51:58.821Z,7.30
2023-02-19T07:54:27.116Z,8.00
2023-02-19T07:57:00.368Z,6.20
2023-02-19T07:59:28.545Z,5.90
2023-02-19T08:02:15.178Z,6.90
2023-02-19T08:04:45.823Z,8.10
2023-02-19T08:07:14.155Z,6.30
2023-02-19T08:09:42.403Z,5.60
2023-02-19T08:12:30.214Z,5.80
2023-02-19T08:14:58.347Z,9.40
2023-02-19T08:17:26.748Z,6.00
2023-02-19T08:19:55.185Z,8.30
2023-02-19T08:22:23.277Z,7.40
2023-02-19T08:24:51.666Z,6.00
2023-02-19T08:27:22.334Z,6.10
2023-02-19T08:29:53.335Z,6.80
2023-02-19T08:34:49.086Z,7.70
2023-02-19T08:37:17.485Z,11.20
2023-02-19T08:39:46.120Z,6.90
2023-02-19T08:42:14.509Z,5.80
2023-02-19T08:44:43.233Z,6.60
2023-02-19T08:47:11.983Z,7.80
2023-02-19T08:49:40.546Z,7.40
2023-02-19T08:52:08.612Z,7.50
2023-02-19T08:54:37.343Z,6.20
2023-02-19T08:57:05.973Z,6.70
2023-02-19T08:59:37.824Z,7.20
2023-02-19T09:02:06.302Z,7.00
2023-02-19T09:04:38.010Z,6.60
2023-02-19T09:07:11.157Z,6.90
2023-02-19T09:09:39.563Z,9.90
2023-02-19T09:12:09.071Z,7.40
2023-02-19T09:14:38.188Z,11.20
2023-02-19T09:17:07.117Z,10.40
2023-02-19T09:19:35.720Z,10.10
2023-02-19T09:22:04.744Z,8.80
2023-02-19T09:24:33.018Z,9.10
2023-02-19T09:27:01.546Z,10.30
2023-02-19T09:29:29.999Z,11.90
2023-02-19T09:32:04.044Z,9.70
2023-02-19T09:34:33.177Z,8.70
2023-02-19T09:37:01.495Z,8.00
2023-02-19T09:39:31.060Z,6.70
2023-02-19T09:42:19.952Z,7.40
2023-02-19T09:44:49.942Z,8.70
2023-02-19T09:47:23.028Z,9.20
2023-02-19T09:49:59.993Z,8.00
2023-02-19T09:52:46.268Z,10.30
2023-02-19T09:55:17.098Z,25.70
2023-02-19T09:57:45.361Z,17.00
2023-02-19T10:00:24.966Z,10.00
2023-02-19T10:03:04.425Z,10.60
2023-02-19T10:05:36.336Z,13.20
2023-02-19T10:08:05.614Z,13.00
2023-02-19T10:10:35.036Z,12.80
2023-02-19T10:13:22.677Z,12.70
2023-02-19T10:15:53.085Z,11.20
2023-02-19T10:18:23.462Z,18.20
2023-02-19T10:20:52.619Z,12.70
2023-02-19T10:23:23.799Z,15.20
2023-02-19T10:25:54.500Z,16.20
2023-02-19T10:28:28.613Z,14.00
2023-02-19T10:31:00.025Z,17.80
2023-02-19T10:33:30.307Z,16.00
2023-02-19T10:36:01.444Z,29.00
2023-02-19T10:38:53.181Z,34.90
2023-02-19T10:41:25.169Z,14.10
2023-02-19T10:43:55.361Z,14.40
2023-02-19T10:46:25.769Z,13.00
2023-02-19T10:49:02.462Z,13.50
2023-02-19T10:51:38.755Z,12.80
2023-02-19T10:54:19.619Z,14.20
2023-02-19T10:56:47.849Z,15.50
2023-02-19T10:59:16.129Z,13.50
2023-02-19T11:02:04.320Z,14.10
2023-02-19T11:04:38.494Z,12.90
2023-02-19T11:07:17.923Z,17.30
2023-02-19T11:09:47.447Z,20.70
2023-02-19T11:12:24.013Z,20.20
2023-02-19T11:14:52.589Z,19.00
2023-02-19T11:17:28.943Z,19.40
2023-02-19T11:19:59.190Z,17.90
2023-02-19T11:22:47.006Z,26.50
2023-02-19T11:25:15.252Z,17.70
2023-02-19T11:27:54.539Z,32.20
2023-02-19T11:30:36.619Z,17.30
2023-02-19T11:33:29.513Z,17.40
2023-02-19T11:36:30.439Z,14.00
2023-02-19T11:39:15.791Z,31.00
2023-02-19T11:41:52.194Z,20.60
2023-02-19T11:44:42.704Z,11.40
2023-02-19T11:47:25.938Z,13.80
2023-02-19T11:50:17.143Z,14.30
2023-02-19T11:53:03.928Z,24.90
2023-02-19T11:56:10.130Z,19.70
2023-02-19T11:58:38.848Z,14.90
2023-02-19T12:01:32.188Z,11.40
2023-02-19T12:04:27.521Z,14.00
2023-02-19T12:07:07.048Z,12.30
2023-02-19T12:09:54.431Z,11.30
2023-02-19T12:12:52.448Z,10.60
2023-02-19T12:15:45.870Z,9.90
2023-02-19T12:18:48.391Z,10.00
2023-02-19T12:21:25.300Z,11.80
2023-02-19T12:24:11.647Z,11.00
2023-02-19T12:27:07.896Z,11.30
2023-02-19T12:29:58.835Z,11.60
2023-02-19T12:32:49.380Z,10.00
2023-02-19T12:35:42.258Z,11.80
2023-02-19T12:38:21.301Z,11.60
2023-02-19T12:41:03.151Z,9.40
2023-02-19T12:43:32.169Z,10.30
2023-02-19T12:46:05.691Z,10.70
2023-02-19T12:48:42.658Z,8.40
2023-02-19T12:51:26.918Z,10.60
2023-02-19T12:54:01.724Z,10.00
2023-02-19T12:56:34.732Z,9.80
2023-02-19T12:59:16.461Z,9.20
2023-02-19T13:02:13.625Z,10.30
2023-02-19T13:04:54.721Z,9.10
2023-02-19T13:07:41.772Z,12.60
2023-02-19T13:10:36.920Z,7.90
2023-02-19T13:18:18.919Z,6.90
2023-02-19T13:20:48.852Z,6.30
2023-02-19T13:23:53.838Z,9.10
2023-02-19T13:27:00.296Z,7.80
2023-02-19T13:29:39.853Z,7.80
2023-02-19T13:32:14.076Z,9.40
2023-02-19T13:34:55.372Z,8.20
2023-02-19T13:37:23.494Z,11.00
2023-02-19T13:39:52.978Z,10.60
2023-02-19T13:42:39.628Z,10.00
2023-02-19T13:45:22.330Z,9.90
2023-02-19T13:47:54.608Z,10.20
2023-02-19T13:50:30.143Z,10.10
2023-02-19T13:53:01.930Z,7.30
2023-02-19T13:55:42.817Z,7.30
2023-02-19T13:58:34.003Z,7.10
2023-02-19T14:01:09.850Z,10.10
2023-02-19T14:03:47.765Z,7.60
2023-02-19T14:06:15.950Z,6.80
2023-02-19T14:08:49.550Z,7.70
2023-02-19T14:11:18.633Z,5.80
2023-02-19T14:13:50.990Z,5.50
2023-02-19T14:16:41.355Z,6.10
2023-02-19T14:19:44.040Z,6.40
2023-02-19T14:22:52.317Z,7.30
2023-02-19T14:25:38.409Z,7.70
2023-02-19T14:28:24.716Z,7.50
2023-02-19T14:31:06.537Z,6.50
2023-02-19T14:33:38.127Z,7.30
2023-02-19T14:36:18.317Z,7.50
2023-02-19T14:38:57.063Z,6.20
2023-02-19T14:41:26.204Z,7.10
2023-02-19T14:43:55.576Z,9.40
2023-02-19T14:46:33.341Z,8.60
2023-02-19T14:49:19.490Z,7.20
2023-02-19T14:51:53.222Z,6.50
2023-02-19T14:54:29.884Z,5.80
2023-02-19T14:57:00.397Z,4.00
2023-02-19T14:59:31.092Z,7.40
2023-02-19T15:02:02.722Z,8.40
2023-02-19T15:04:37.767Z,9.80
2023-02-19T15:07:07.750Z,7.10
2023-02-19T15:09:41.596Z,8.00
2023-02-19T15:12:15.719Z,8.70
2023-02-19T15:14:45.814Z,9.60
2023-02-19T15:17:22.567Z,8.20
2023-02-19T15:19:52.020Z,6.80
2023-02-19T15:22:24.933Z,8.40
2023-02-19T15:24:56.198Z,7.20
2023-02-19T15:27:24.817Z,7.40
2023-02-19T15:29:53.662Z,9.20
2023-02-19T15:32:26.519Z,8.80
2023-02-19T15:34:59.998Z,9.50
2023-02-19T15:37:29.922Z,6.30
2023-02-19T15:39:59.678Z,8.00
2023-02-19T15:42:32.288Z,8.40
2023-02-19T15:45:28.294Z,3.00
2023-02-19T15:48:06.826Z,3.50
2023-02-19T15:50:39.531Z,2.70
2023-02-19T15:53:22.245Z,1.10
2023-02-19T15:56:09.238Z,1.30
2023-02-19T15:58:45.987Z,1.20
2023-02-19T16:01:37.735Z,1.50
2023-02-19T16:04:18.293Z,2.30
2023-02-19T16:06:55.758Z,0.80
2023-02-19T16:09:33.408Z,1.20
2023-02-19T16:12:03.027Z,0.80
2023-02-19T16:14:41.346Z,2.50
2023-02-19T16:17:20.215Z,1.80
2023-02-19T16:19:59.403Z,2.00
2023-02-19T16:22:29.916Z,3.00
2023-02-19T16:25:00.006Z,1.80
2023-02-19T16:27:35.454Z,2.00
2023-02-19T16:30:16.309Z,2.20
2023-02-19T16:32:47.123Z,2.30
2023-02-19T16:35:37.717Z,2.60
2023-02-19T16:38:13.654Z,5.10
2023-02-19T16:43:31.636Z,1.70
2023-02-19T16:45:59.941Z,2.70
2023-02-19T16:48:28.063Z,1.70
2023-02-19T16:51:00.625Z,2.60
2023-02-19T16:53:29.577Z,2.20
2023-02-19T16:56:00.056Z,2.60
2023-02-19T16:58:28.610Z,1.40
2023-02-19T17:00:57.448Z,1.70
2023-02-19T17:03:25.680Z,1.80
2023-02-19T17:05:54.132Z,1.70
2023-02-19T17:08:34.838Z,1.40
2023-02-19T17:11:05.319Z,1.70
2023-02-19T17:13:33.475Z,1.00
2023-02-19T17:16:02.277Z,1.80
2023-02-19T17:18:35.691Z,1.10
2023-02-19T17:21:15.917Z,2.10
2023-02-19T17:23:44.251Z,1.70
2023-02-19T17:26:16.420Z,1.70
2023-02-19T17:28:47.107Z,1.60
2023-02-19T17:31:15.444Z,1.50
2023-02-19T17:33:47.004Z,1.20
2023-02-19T17:36:25.315Z,1.20
2023-02-19T17:38:54.231Z,2.40
2023-02-19T17:41:22.980Z,2.10
2023-02-19T17:43:55.173Z,1.20
2023-02-19T17:46:26.737Z,2.20
2023-02-19T17:48:55.265Z,2.30
2023-02-19T17:51:27.466Z,3.00
2023-02-19T17:53:55.891Z,1.60
2023-02-19T17:56:31.032Z,1.50
2023-02-19T17:59:04.289Z,1.00
2023-02-19T18:01:34.837Z,1.50
2023-02-19T18:04:03.095Z,0.80
2023-02-19T18:06:36.410Z,2.30
2023-02-19T18:09:07.110Z,1.80
2023-02-19T18:11:37.411Z,4.60
2023-02-19T18:14:09.830Z,4.00
2023-02-19T18:16:38.557Z,2.10
2023-02-19T18:19:08.197Z,2.60
2023-02-19T18:21:36.915Z,2.40
2023-02-19T18:24:10.197Z,2.80
2023-02-19T18:26:38.983Z,3.30
2023-02-19T18:29:09.823Z,4.40
2023-02-19T18:31:38.760Z,4.10
2023-02-19T18:34:15.767Z,5.20
2023-02-19T18:36:49.576Z,3.10
2023-02-19T18:39:22.488Z,3.60
2023-02-19T18:41:51.164Z,4.70
2023-02-19T18:44:23.647Z,4.50
2023-02-19T18:46:54.923Z,3.80
2023-02-19T18:49:25.426Z,3.50
2023-02-19T18:51:53.520Z,4.70
2023-02-19T18:54:24.377Z,4.90
2023-02-19T18:56:53.064Z,3.60
2023-02-19T18:59:24.148Z,3.30
2023-02-19T19:01:52.707Z,3.30
2023-02-19T19:04:23.081Z,3.80
2023-02-19T19:06:51.195Z,4.70
2023-02-19T19:09:22.737Z,4.60
2023-02-19T19:11:50.879Z,6.50
2023-02-19T19:14:19.071Z,4.70
2023-02-19T19:16:47.278Z,6.50
2023-02-19T19:19:16.114Z,5.50
2023-02-19T19:21:46.939Z,4.70
2023-02-19T19:24:16.005Z,4.50
2023-02-19T19:26:45.488Z,4.00
2023-02-19T19:29:17.355Z,4.50
2023-02-19T19:31:45.635Z,5.70
2023-02-19T19:34:14.568Z,4.30
2023-02-19T19:36:43.352Z,7.10
2023-02-19T19:39:11.959Z,5.20
2023-02-19T19:41:42.562Z,4.20
2023-02-19T19:44:10.706Z,4.90
2023-02-19T19:46:45.659Z,6.10
2023-02-19T19:49:21.338Z,8.90
2023-02-19T19:51:49.766Z,4.40
2023-02-19T19:54:18.777Z,3.60
2023-02-19T19:56:47.421Z,5.00
2023-02-19T19:59:16.714Z,2.90
2023-02-19T20:01:58.160Z,4.40
2023-02-19T20:04:26.812Z,5.70
2023-02-19T20:07:00.297Z,4.20
2023-02-19T20:09:33.890Z,6.00
2023-02-19T20:12:05.516Z,5.10
2023-02-19T20:14:34.169Z,6.30
2023-02-19T20:17:08.319Z,4.50
2023-02-19T20:19:43.027Z,8.30
2023-02-19T20:22:12.441Z,5.50
2023-02-19T20:24:40.768Z,4.90
2023-02-19T20:27:09.090Z,9.70
2023-02-19T20:29:38.323Z,7.60
2023-02-19T20:32:06.630Z,5.60
2023-02-19T20:34:38.531Z,8.60
2023-02-19T20:37:07.253Z,5.20
2023-02-19T20:39:37.747Z,7.10
2023-02-19T20:42:09.122Z,5.50
2023-02-19T20:44:37.527Z,6.30
2023-02-19T20:47:06.081Z,6.00
2023-02-19T20:52:33.146Z,6.30
2023-02-19T21:02:38.195Z,8.50
2023-02-19T21:05:10.175Z,9.80
2023-02-19T21:07:38.237Z,6.60
2023-02-19T21:10:12.054Z,8.70
2023-02-19T21:12:42.316Z,8.10
2023-02-19T21:15:11.104Z,17.30
2023-02-19T21:17:43.997Z,11.20
2023-02-19T21:20:13.033Z,7.50
2023-02-19T21:22:44.959Z,8.50
2023-02-19T21:25:15.909Z,9.50
2023-02-19T21:27:43.974Z,8.40
2023-02-19T21:30:12.997Z,6.70
2023-02-19T21:32:43.883Z,8.90
2023-02-19T21:35:12.240Z,5.90
2023-02-19T21:37:44.610Z,7.50
2023-02-19T21:40:13.471Z,5.90
2023-02-19T21:42:41.723Z,5.20
2023-02-19T21:45:10.166Z,6.80
2023-02-19T21:47:38.905Z,6.80
2023-02-19T21:50:07.629Z,6.20
2023-02-19T21:52:44.826Z,8.40
2023-02-19T21:55:15.344Z,6.00
2023-02-19T21:57:43.385Z,10.30
2023-02-19T22:00:12.221Z,7.40
2023-02-19T22:02:41.695Z,5.80
2023-02-19T22:05:10.136Z,7.80
2023-02-19T22:07:38.387Z,7.10
2023-02-19T22:10:08.246Z,7.30
2023-02-19T22:12:37.095Z,7.30
2023-02-19T22:15:07.153Z,8.00
2023-02-19T22:17:36.439Z,7.70
2023-02-19T22:20:04.901Z,8.80
2023-02-19T22:22:33.245Z,8.90
2023-02-19T22:25:02.936Z,11.60
2023-02-19T22:27:32.048Z,7.20
2023-02-19T22:30:00.485Z,7.30
2023-02-19T22:32:28.881Z,11.30
2023-02-19T22:34:57.843Z,12.00
2023-02-19T22:37:26.044Z,11.30
2023-02-19T22:39:54.232Z,8.50
2023-02-19T22:42:24.381Z,9.20
2023-02-19T22:44:52.581Z,10.40
2023-02-19T22:47:22.777Z,10.80
2023-02-19T22:49:51.391Z,21.30
2023-02-19T22:52:20.614Z,10.70
2023-02-19T22:54:48.735Z,9.80
2023-02-19T22:57:17.141Z,13.00
2023-02-19T22:59:45.592Z,14.50
2023-02-19T23:02:13.770Z,11.60
2023-02-19T23:04:42.916Z,12.00
2023-02-19T23:07:16.022Z,9.70
2023-02-19T23:09:44.132Z,9.60
2023-02-19T23:12:12.311Z,8.20
2023-02-19T23:14:40.432Z,9.60
2023-02-19T23:17:08.965Z,10.70
2023-02-19T23:19:38.085Z,10.40
2023-02-19T23:22:06.953Z,9.80
2023-02-19T23:24:35.115Z,13.00
2023-02-19T23:27:03.381Z,7.50
2023-02-19T23:29:31.596Z,9.70
2023-02-19T23:32:03.878Z,10.30
2023-02-19T23:34:34.427Z,7.00
2023-02-19T23:37:05.754Z,9.00
2023-02-19T23:39:34.448Z,7.90
2023-02-19T23:42:02.891Z,8.00
2023-02-19T23:44:31.445Z,8.30
2023-02-19T23:46:59.807Z,9.20
2023-02-19T23:49:27.939Z,7.80
2023-02-19T23:52:01.685Z,10.90
2023-02-19T23:54:32.652Z,6.70
2023-02-19T23:57:00.781Z,7.00
2023-02-19T23:59:29.341Z,7.50
